createdAt,value
2023-04-07T00:00:45.081Z,8.20
2023-04-07T00:03:13.062Z,8.75
2023-04-07T00:05:40.346Z,8.93
2023-04-07T00:08:07.693Z,9.18
2023-04-07T00:10:35.015Z,9.27
2023-04-07T00:13:02.335Z,8.80
2023-04-07T00:15:29.517Z,8.90
2023-04-07T00:17:56.964Z,9.65
2023-04-07T00:20:24.356Z,10.02
2023-04-07T00:22:51.399Z,9.98
2023-04-07T00:25:18.554Z,10.73
2023-04-07T00:27:46.026Z,10.48
2023-04-07T00:30:13.292Z,9.68
2023-04-07T00:32:40.442Z,10.48
2023-04-07T00:35:08.080Z,11.25
2023-04-07T00:37:35.148Z,10.05
2023-04-07T00:40:02.445Z,9.45
2023-04-07T00:42:30.333Z,10.07
2023-04-07T00:44:57.421Z,10.05
2023-04-07T00:47:24.664Z,10.10
2023-04-07T00:49:52.074Z,8.85
2023-04-07T00:52:27.293Z,10.18
2023-04-07T00:54:55.925Z,9.23
2023-04-07T00:57:23.600Z,9.05
2023-04-07T00:59:52.538Z,10.07
2023-04-07T01:02:39.019Z,10.05
2023-04-07T01:05:36.627Z,9.98
2023-04-07T01:08:21.040Z,9.18
2023-04-07T01:11:06.059Z,9.20
2023-04-07T01:13:53.121Z,9.73
2023-04-07T01:16:30.402Z,10.10
2023-04-07T01:19:47.277Z,9.57
2023-04-07T01:22:21.311Z,9.98
2023-04-07T01:25:06.574Z,9.63
2023-04-07T01:28:00.818Z,10.60
2023-04-07T01:30:31.643Z,9.85
2023-04-07T01:33:00.897Z,9.90
2023-04-07T01:35:36.054Z,9.80
2023-04-07T01:38:04.862Z,9.77
2023-04-07T01:40:35.306Z,9.38
2023-04-07T01:43:03.694Z,9.10
2023-04-07T01:45:32.233Z,9.68
2023-04-07T01:48:01.067Z,9.55
2023-04-07T01:50:29.977Z,9.55
2023-04-07T01:52:57.620Z,10.07
2023-04-07T01:55:26.014Z,9.90
2023-04-07T01:57:56.142Z,9.15
2023-04-07T02:00:23.251Z,9.73
2023-04-07T02:02:59.416Z,9.10
2023-04-07T02:05:30.074Z,9.50
2023-04-07T02:08:03.985Z,10.32
2023-04-07T02:10:35.440Z,9.93
2023-04-07T02:13:06.426Z,9.82
2023-04-07T02:15:34.122Z,10.18
2023-04-07T02:18:03.718Z,9.93
2023-04-07T02:20:31.844Z,8.68
2023-04-07T02:22:59.315Z,9.90
2023-04-07T02:25:28.421Z,9.38
2023-04-07T02:27:57.115Z,10.20
2023-04-07T02:30:25.435Z,9.93
2023-04-07T02:32:53.396Z,10.23
2023-04-07T02:35:21.180Z,9.23
2023-04-07T02:37:49.201Z,10.15
2023-04-07T02:40:16.670Z,9.07
2023-04-07T02:42:43.957Z,9.32
2023-04-07T02:45:11.855Z,9.25
2023-04-07T02:47:40.093Z,10.38
2023-04-07T02:50:07.842Z,8.80
2023-04-07T02:52:34.959Z,9.85
2023-04-07T02:55:02.132Z,9.75
2023-04-07T02:57:29.337Z,10.38
2023-04-07T02:59:58.094Z,10.63
2023-04-07T03:02:25.619Z,9.60
2023-04-07T03:04:53.327Z,9.15
2023-04-07T03:07:20.701Z,9.55
2023-04-07T03:09:47.752Z,9.40
2023-04-07T03:12:14.960Z,9.85
2023-04-07T03:14:42.038Z,10.07
2023-04-07T03:17:09.228Z,9.75
2023-04-07T03:19:36.668Z,8.93
2023-04-07T03:22:03.824Z,9.80
2023-04-07T03:24:31.367Z,9.80
2023-04-07T03:26:58.470Z,9.77
2023-04-07T03:29:25.783Z,9.93
2023-04-07T03:31:52.826Z,10.05
2023-04-07T03:34:19.928Z,9.93
2023-04-07T03:36:47.005Z,10.32
2023-04-07T03:39:14.197Z,10.25
2023-04-07T03:41:41.361Z,9.82
2023-04-07T03:44:08.484Z,10.18
2023-04-07T03:46:35.744Z,10.43
2023-04-07T03:49:02.853Z,9.65
2023-04-07T03:51:29.945Z,9.70
2023-04-07T03:53:57.030Z,9.18
2023-04-07T03:56:24.843Z,9.50
2023-04-07T03:58:52.221Z,8.45
2023-04-07T04:01:19.671Z,9.38
2023-04-07T04:03:47.675Z,9.57
2023-04-07T04:06:14.790Z,11.05
2023-04-07T04:08:41.834Z,8.98
2023-04-07T04:11:08.934Z,9.48
2023-04-07T04:13:36.256Z,10.05
2023-04-07T04:16:03.708Z,9.35
2023-04-07T04:18:30.962Z,9.93
2023-04-07T04:20:58.038Z,9.85
2023-04-07T04:23:25.384Z,9.32
2023-04-07T04:25:52.443Z,9.57
2023-04-07T04:28:19.477Z,9.68
2023-04-07T04:30:46.816Z,10.05
2023-04-07T04:33:13.991Z,9.38
2023-04-07T04:35:41.271Z,9.98
2023-04-07T04:38:08.356Z,9.40
2023-04-07T04:40:35.408Z,9.63
2023-04-07T04:43:06.924Z,10.05
2023-04-07T04:45:34.129Z,8.52
2023-04-07T04:48:01.403Z,8.60
2023-04-07T04:50:28.554Z,9.80
2023-04-07T04:52:55.820Z,10.50
2023-04-07T04:55:22.934Z,9.95
2023-04-07T04:57:49.980Z,9.65
2023-04-07T05:00:17.525Z,10.07
2023-04-07T05:02:46.910Z,9.13
2023-04-07T05:05:14.441Z,10.02
2023-04-07T05:07:42.187Z,9.98
2023-04-07T05:10:10.100Z,9.07
2023-04-07T05:12:37.242Z,9.70
2023-04-07T05:15:04.882Z,9.10
2023-04-07T05:17:32.024Z,8.95
2023-04-07T05:19:59.064Z,9.63
2023-04-07T05:22:26.303Z,10.20
2023-04-07T05:24:53.531Z,9.10
2023-04-07T05:27:20.627Z,9.15
2023-04-07T05:29:47.752Z,9.13
2023-04-07T05:32:14.823Z,9.60
2023-04-07T05:34:42.080Z,9.90
2023-04-07T05:37:09.142Z,10.18
2023-04-07T05:39:36.327Z,9.45
2023-04-07T05:42:03.905Z,10.23
2023-04-07T05:44:31.125Z,9.85
2023-04-07T05:46:58.158Z,9.85
2023-04-07T05:49:25.277Z,9.73
2023-04-07T05:51:52.339Z,9.30
2023-04-07T05:54:19.489Z,10.02
2023-04-07T05:56:46.543Z,9.00
2023-04-07T05:59:13.783Z,10.00
2023-04-07T06:01:41.250Z,9.35
2023-04-07T06:04:08.428Z,8.60
2023-04-07T06:06:35.678Z,9.65
2023-04-07T06:09:02.882Z,9.60
2023-04-07T06:11:29.972Z,10.02
2023-04-07T06:13:57.053Z,9.30
2023-04-07T06:16:24.137Z,9.73
2023-04-07T06:18:51.399Z,9.43
2023-04-07T06:21:18.618Z,9.77
2023-04-07T06:23:45.709Z,8.70
2023-04-07T06:26:13.116Z,8.50
2023-04-07T06:28:40.822Z,10.80
2023-04-07T06:31:08.818Z,9.52
2023-04-07T06:33:36.143Z,9.35
2023-04-07T06:36:03.429Z,9.68
2023-04-07T06:38:30.637Z,9.75
2023-04-07T06:40:57.720Z,9.30
2023-04-07T06:43:24.948Z,9.32
2023-04-07T06:45:52.091Z,9.27
2023-04-07T06:48:19.229Z,8.85
2023-04-07T06:50:52.867Z,9.63
2023-04-07T06:53:19.982Z,9.25
2023-04-07T06:55:47.211Z,10.13
2023-04-07T06:58:14.267Z,9.30
2023-04-07T07:00:41.675Z,8.88
2023-04-07T07:03:08.949Z,9.20
2023-04-07T07:05:36.389Z,8.85
2023-04-07T07:08:03.481Z,8.82
2023-04-07T07:10:30.687Z,8.57
2023-04-07T07:12:57.812Z,9.88
2023-04-07T07:15:25.075Z,10.15
2023-04-07T07:17:52.221Z,9.05
2023-04-07T07:20:19.530Z,9.43
2023-04-07T07:22:46.601Z,9.38
2023-04-07T07:25:14.089Z,9.40
2023-04-07T07:27:41.272Z,9.07
2023-04-07T07:30:09.036Z,9.38
2023-04-07T07:32:36.239Z,10.15
2023-04-07T07:35:03.454Z,9.52
2023-04-07T07:37:30.653Z,9.57
2023-04-07T07:39:57.845Z,8.75
2023-04-07T07:42:24.983Z,8.50
2023-04-07T07:44:52.067Z,8.70
2023-04-07T07:47:19.187Z,8.65
2023-04-07T07:49:49.447Z,7.68
2023-04-07T07:52:16.576Z,7.45
2023-04-07T07:54:43.866Z,7.55
2023-04-07T07:57:10.987Z,8.20
2023-04-07T07:59:40.592Z,8.73
2023-04-07T08:02:09.524Z,8.05
2023-04-07T08:04:37.856Z,8.35
2023-04-07T08:07:04.994Z,8.18
2023-04-07T08:09:32.596Z,7.82
2023-04-07T08:11:59.778Z,7.90
2023-04-07T08:14:26.848Z,8.98
2023-04-07T08:16:53.924Z,7.68
2023-04-07T08:19:21.187Z,8.65
2023-04-07T08:21:48.263Z,8.25
2023-04-07T08:24:15.614Z,8.07
2023-04-07T08:26:42.729Z,8.75
2023-04-07T08:29:09.882Z,8.85
2023-04-07T08:31:37.014Z,8.48
2023-04-07T08:34:04.132Z,8.40
2023-04-07T08:36:31.570Z,9.05
2023-04-07T08:39:00.379Z,9.20
2023-04-07T08:41:36.747Z,7.90
2023-04-07T08:44:04.798Z,7.82
2023-04-07T08:46:34.129Z,7.82
2023-04-07T08:49:02.231Z,7.68
2023-04-07T08:51:32.262Z,7.85
2023-04-07T08:54:14.002Z,7.82
2023-04-07T08:56:43.622Z,7.60
2023-04-07T08:59:13.988Z,7.10
2023-04-07T09:01:41.968Z,7.57
2023-04-07T09:04:10.686Z,7.03
2023-04-07T09:06:38.539Z,7.63
2023-04-07T09:09:06.355Z,7.63
2023-04-07T09:11:40.235Z,7.47
2023-04-07T09:14:10.923Z,6.85
2023-04-07T09:16:38.478Z,7.43
2023-04-07T09:19:06.438Z,7.13
2023-04-07T09:21:53.304Z,7.22
2023-04-07T09:24:29.853Z,9.02
2023-04-07T09:27:17.016Z,7.25
2023-04-07T09:29:47.589Z,7.70
2023-04-07T09:32:41.359Z,7.80
2023-04-07T09:35:09.458Z,7.70
2023-04-07T09:37:37.804Z,7.38
2023-04-07T09:40:05.767Z,7.65
2023-04-07T09:42:34.629Z,8.25
2023-04-07T09:45:01.947Z,8.93
2023-04-07T09:47:31.401Z,8.45
2023-04-07T09:50:06.619Z,9.02
2023-04-07T09:52:54.462Z,7.75
2023-04-07T09:55:23.441Z,8.27
2023-04-07T09:57:51.489Z,8.82
2023-04-07T10:00:19.213Z,9.25
2023-04-07T10:02:46.814Z,8.55
2023-04-07T10:05:14.191Z,8.57
2023-04-07T10:07:42.720Z,8.82
2023-04-07T10:10:11.162Z,7.85
2023-04-07T10:12:39.242Z,8.98
2023-04-07T10:15:07.446Z,8.88
2023-04-07T10:17:37.364Z,9.05
2023-04-07T10:20:07.206Z,8.50
2023-04-07T10:22:36.590Z,8.52
2023-04-07T10:25:12.707Z,8.80
2023-04-07T10:27:56.562Z,8.38
2023-04-07T10:30:32.628Z,8.85
2023-04-07T10:33:00.009Z,8.85
2023-04-07T10:35:28.496Z,8.77
2023-04-07T10:38:08.029Z,9.15
2023-04-07T10:40:36.396Z,8.30
2023-04-07T10:43:04.862Z,8.80
2023-04-07T10:45:51.948Z,9.25
2023-04-07T10:48:20.311Z,9.05
2023-04-07T10:51:15.900Z,8.52
2023-04-07T10:54:26.799Z,9.60
2023-04-07T10:57:03.907Z,8.57
2023-04-07T10:59:32.223Z,8.40
2023-04-07T11:02:14.814Z,9.05
2023-04-07T11:04:45.762Z,9.02
2023-04-07T11:07:16.406Z,8.65
2023-04-07T11:09:44.175Z,8.68
2023-04-07T11:12:23.921Z,8.20
2023-04-07T11:14:51.207Z,8.05
2023-04-07T11:17:18.606Z,8.27
2023-04-07T11:19:53.481Z,8.18
2023-04-07T11:24:50.681Z,7.40
2023-04-07T11:27:17.851Z,8.15
2023-04-07T11:29:44.976Z,7.68
2023-04-07T11:32:13.216Z,7.28
2023-04-07T11:34:40.477Z,7.55
2023-04-07T11:37:27.255Z,8.68
2023-04-07T11:39:59.184Z,8.88
2023-04-07T11:42:40.133Z,9.00
2023-04-07T11:45:18.309Z,9.05
2023-04-07T11:47:45.510Z,9.85
2023-04-07T11:50:14.315Z,9.13
2023-04-07T11:52:48.882Z,10.65
2023-04-07T11:55:26.668Z,13.68
2023-04-07T11:57:53.866Z,18.02
2023-04-07T12:00:21.585Z,10.93
2023-04-07T12:02:48.865Z,10.52
2023-04-07T12:05:16.162Z,9.65
2023-04-07T12:07:54.579Z,10.07
2023-04-07T12:10:23.738Z,9.18
2023-04-07T12:12:51.625Z,9.75
2023-04-07T12:15:18.841Z,9.07
2023-04-07T12:17:48.101Z,10.43
2023-04-07T12:20:16.435Z,10.25
2023-04-07T12:22:43.568Z,10.30
2023-04-07T12:25:10.906Z,9.95
2023-04-07T12:27:43.339Z,10.25
2023-04-07T12:30:13.222Z,9.88
2023-04-07T12:32:41.536Z,10.23
2023-04-07T12:35:08.860Z,10.57
2023-04-07T12:37:35.995Z,9.85
2023-04-07T12:40:03.287Z,10.30
2023-04-07T12:42:30.461Z,8.88
2023-04-07T12:44:57.607Z,10.05
2023-04-07T12:47:24.773Z,8.93
2023-04-07T12:49:51.863Z,9.85
2023-04-07T12:52:19.014Z,9.48
2023-04-07T12:54:46.028Z,9.15
2023-04-07T12:57:13.180Z,11.43
2023-04-07T12:59:40.669Z,9.93
2023-04-07T13:02:08.778Z,9.82
2023-04-07T13:04:37.097Z,9.35
2023-04-07T13:07:04.289Z,10.13
2023-04-07T13:09:31.412Z,9.85
2023-04-07T13:11:58.676Z,10.07
2023-04-07T13:14:27.293Z,26.13
2023-04-07T13:16:54.392Z,11.95
2023-04-07T13:19:21.962Z,10.88
2023-04-07T13:21:49.311Z,10.38
2023-04-07T13:24:16.560Z,10.40
2023-04-07T13:26:43.637Z,10.35
2023-04-07T13:29:10.893Z,10.63
2023-04-07T13:31:38.081Z,10.30
2023-04-07T13:34:05.262Z,10.05
2023-04-07T13:36:32.321Z,10.70
2023-04-07T13:38:59.751Z,10.50
2023-04-07T13:41:26.850Z,10.75
2023-04-07T13:43:54.050Z,11.30
2023-04-07T13:46:28.541Z,10.65
2023-04-07T13:48:57.062Z,11.15
2023-04-07T13:51:24.414Z,11.20
2023-04-07T13:53:51.710Z,11.45
2023-04-07T13:56:18.946Z,10.77
2023-04-07T13:58:46.139Z,10.27
2023-04-07T14:01:13.524Z,10.77
2023-04-07T14:03:40.759Z,11.18
2023-04-07T14:06:08.046Z,10.77
2023-04-07T14:08:35.167Z,9.98
2023-04-07T14:11:03.133Z,10.63
2023-04-07T14:13:30.531Z,10.90
2023-04-07T14:15:58.502Z,11.07
2023-04-07T14:18:28.023Z,10.18
2023-04-07T14:20:57.934Z,11.27
2023-04-07T14:23:36.498Z,10.40
2023-04-07T14:26:04.696Z,9.93
2023-04-07T14:28:31.949Z,10.23
2023-04-07T14:30:59.069Z,15.88
2023-04-07T14:33:26.229Z,12.32
2023-04-07T14:35:53.521Z,9.65
2023-04-07T14:38:24.406Z,9.88
2023-04-07T14:40:55.067Z,13.45
2023-04-07T14:43:22.153Z,11.00
2023-04-07T14:45:49.361Z,8.02
2023-04-07T14:48:17.225Z,8.30
2023-04-07T14:50:44.373Z,8.48
2023-04-07T14:53:11.645Z,7.85
2023-04-07T14:55:38.784Z,6.88
2023-04-07T14:58:05.854Z,7.72
2023-04-07T15:00:32.912Z,7.63
2023-04-07T15:03:00.585Z,7.85
2023-04-07T15:05:29.739Z,7.70
2023-04-07T15:07:57.117Z,7.97
2023-04-07T15:10:24.262Z,8.75
2023-04-07T15:12:51.362Z,8.25
2023-04-07T15:15:18.748Z,8.32
2023-04-07T15:17:45.996Z,8.20
2023-04-07T15:20:13.637Z,8.55
2023-04-07T15:22:40.912Z,8.52
2023-04-07T15:25:08.810Z,8.27
2023-04-07T15:27:36.019Z,10.00
2023-04-07T15:30:03.587Z,9.63
2023-04-07T15:32:32.005Z,9.60
2023-04-07T15:34:59.246Z,9.68
2023-04-07T15:37:26.836Z,10.07
2023-04-07T15:39:53.985Z,8.85
2023-04-07T15:42:21.089Z,10.05
2023-04-07T15:44:48.206Z,9.85
2023-04-07T15:47:15.308Z,9.98
2023-04-07T15:49:42.482Z,10.50
2023-04-07T15:52:11.974Z,10.80
2023-04-07T15:54:39.131Z,11.05
2023-04-07T15:57:06.190Z,10.98
2023-04-07T15:59:33.344Z,11.07
2023-04-07T16:02:00.804Z,11.77
2023-04-07T16:04:28.058Z,12.73
2023-04-07T16:06:55.295Z,12.05
2023-04-07T16:09:22.361Z,11.57
2023-04-07T16:11:49.438Z,11.20
2023-04-07T16:14:16.615Z,11.15
2023-04-07T16:16:44.641Z,11.52
2023-04-07T16:19:11.942Z,12.25
2023-04-07T16:21:39.658Z,11.93
2023-04-07T16:24:06.858Z,10.77
2023-04-07T16:26:34.070Z,10.80
2023-04-07T16:29:01.207Z,10.82
2023-04-07T16:31:28.376Z,11.60
2023-04-07T16:33:55.512Z,11.23
2023-04-07T16:36:22.648Z,10.18
2023-04-07T16:38:51.121Z,11.15
2023-04-07T16:41:18.203Z,11.73
2023-04-07T16:43:45.466Z,11.95
2023-04-07T16:46:12.703Z,12.27
2023-04-07T16:48:39.847Z,11.50
2023-04-07T16:51:06.990Z,11.00
2023-04-07T16:53:34.155Z,12.02
2023-04-07T16:56:01.261Z,11.52
2023-04-07T16:58:28.375Z,10.77
2023-04-07T17:00:55.605Z,10.98
2023-04-07T17:03:22.969Z,12.52
2023-04-07T17:05:50.356Z,11.25
2023-04-07T17:08:17.528Z,10.85
2023-04-07T17:10:44.621Z,11.82
2023-04-07T17:13:11.810Z,10.77
2023-04-07T17:15:41.551Z,10.90
2023-04-07T17:18:08.670Z,10.50
2023-04-07T17:20:35.838Z,11.25
2023-04-07T17:23:02.937Z,13.25
2023-04-07T17:25:30.041Z,12.15
2023-04-07T17:27:57.211Z,10.93
2023-04-07T17:30:24.323Z,11.00
2023-04-07T17:32:52.558Z,10.38
2023-04-07T17:35:20.852Z,11.60
2023-04-07T17:37:48.504Z,12.82
2023-04-07T17:40:15.844Z,12.55
2023-04-07T17:42:43.169Z,12.38
2023-04-07T17:45:10.925Z,12.73
2023-04-07T17:47:38.727Z,12.35
2023-04-07T17:50:06.778Z,13.65
2023-04-07T17:52:33.885Z,13.20
2023-04-07T17:55:01.726Z,14.65
2023-04-07T17:57:29.150Z,13.30
2023-04-07T17:59:56.316Z,13.80
2023-04-07T18:02:23.676Z,13.00
2023-04-07T18:04:51.040Z,13.45
2023-04-07T18:07:18.501Z,13.85
2023-04-07T18:09:45.719Z,13.50
2023-04-07T18:12:12.943Z,13.98
2023-04-07T18:14:40.360Z,15.00
2023-04-07T18:17:07.470Z,13.57
2023-04-07T18:19:34.608Z,13.38
2023-04-07T18:22:02.024Z,13.07
2023-04-07T18:24:29.363Z,14.07
2023-04-07T18:26:56.992Z,13.27
2023-04-07T18:29:24.550Z,13.43
2023-04-07T18:31:51.693Z,13.15
2023-04-07T18:34:18.844Z,14.00
2023-04-07T18:36:47.651Z,14.80
2023-04-07T18:39:15.391Z,15.68
2023-04-07T18:41:45.422Z,15.23
2023-04-07T18:44:13.120Z,12.80
2023-04-07T18:46:40.559Z,13.18
2023-04-07T18:49:07.748Z,11.98
2023-04-07T18:51:36.093Z,10.57
2023-04-07T18:54:03.287Z,10.57
2023-04-07T18:56:32.983Z,10.90
2023-04-07T18:59:00.297Z,10.82
2023-04-07T19:01:27.511Z,10.30
2023-04-07T19:03:54.819Z,10.65
2023-04-07T19:06:21.999Z,10.88
2023-04-07T19:08:50.863Z,11.52
2023-04-07T19:11:18.334Z,12.38
2023-04-07T19:13:45.567Z,12.82
2023-04-07T19:16:12.780Z,13.90
2023-04-07T19:18:40.110Z,13.68
2023-04-07T19:21:08.357Z,12.60
2023-04-07T19:23:35.714Z,13.65
2023-04-07T19:26:03.998Z,13.68
2023-04-07T19:28:31.499Z,12.93
2023-04-07T19:30:58.676Z,13.20
2023-04-07T19:33:25.820Z,13.10
2023-04-07T19:35:54.068Z,13.18
2023-04-07T19:38:21.269Z,13.80
2023-04-07T19:40:48.425Z,13.82
2023-04-07T19:43:17.412Z,14.15
2023-04-07T19:45:47.920Z,13.15
2023-04-07T19:48:16.128Z,13.98
2023-04-07T19:50:43.962Z,14.35
2023-04-07T19:53:16.242Z,14.07
2023-04-07T19:55:44.410Z,14.02
2023-04-07T19:58:11.945Z,14.77
2023-04-07T20:00:40.345Z,14.38
2023-04-07T20:03:07.866Z,15.73
2023-04-07T20:05:35.707Z,14.73
2023-04-07T20:08:03.216Z,15.40
2023-04-07T20:10:30.810Z,16.25
2023-04-07T20:12:58.023Z,16.38
2023-04-07T20:15:25.089Z,14.57
2023-04-07T20:17:52.302Z,15.13
2023-04-07T20:20:19.956Z,16.45
2023-04-07T20:22:47.123Z,15.95
2023-04-07T20:25:14.264Z,15.38
2023-04-07T20:27:41.410Z,17.27
2023-04-07T20:30:09.147Z,15.73
2023-04-07T20:32:36.278Z,17.08
2023-04-07T20:35:04.016Z,16.67
2023-04-07T20:37:31.174Z,15.80
2023-04-07T20:39:58.933Z,16.90
2023-04-07T20:42:26.067Z,16.55
2023-04-07T20:44:54.867Z,16.90
2023-04-07T20:47:21.949Z,17.70
2023-04-07T20:49:49.123Z,16.85
2023-04-07T20:52:16.218Z,17.88
2023-04-07T20:54:44.903Z,17.23
2023-04-07T20:57:12.069Z,16.88
2023-04-07T20:59:39.273Z,17.65
2023-04-07T21:02:07.011Z,17.48
2023-04-07T21:04:34.393Z,16.17
2023-04-07T21:07:01.543Z,19.92
2023-04-07T21:09:28.649Z,18.80
2023-04-07T21:11:55.868Z,18.45
2023-04-07T21:14:22.949Z,18.80
2023-04-07T21:16:50.040Z,19.98
2023-04-07T21:19:17.753Z,18.38
2023-04-07T21:21:44.855Z,18.95
2023-04-07T21:24:11.946Z,20.02
2023-04-07T21:26:39.017Z,19.63
2023-04-07T21:29:06.111Z,20.08
2023-04-07T21:31:33.838Z,20.00
2023-04-07T21:34:01.058Z,21.17
2023-04-07T21:36:28.253Z,18.58
2023-04-07T21:38:55.358Z,20.27
2023-04-07T21:41:22.467Z,19.38
2023-04-07T21:43:49.659Z,21.23
2023-04-07T21:46:17.668Z,21.10
2023-04-07T21:48:44.824Z,21.58
2023-04-07T21:51:12.026Z,21.77
2023-04-07T21:53:39.283Z,21.58
2023-04-07T21:56:09.236Z,21.95
2023-04-07T21:58:37.455Z,21.30
2023-04-07T22:01:04.872Z,21.27
2023-04-07T22:03:32.192Z,22.33
2023-04-07T22:06:01.151Z,22.20
2023-04-07T22:08:28.306Z,21.92
2023-04-07T22:10:55.556Z,23.70
2023-04-07T22:13:22.694Z,23.17
2023-04-07T22:15:50.520Z,22.42
2023-04-07T22:18:18.155Z,24.60
2023-04-07T22:20:46.375Z,26.38
2023-04-07T22:23:13.513Z,25.98
2023-04-07T22:25:40.637Z,26.40
2023-04-07T22:28:07.816Z,25.92
2023-04-07T22:30:34.984Z,26.65
2023-04-07T22:33:02.126Z,26.02
2023-04-07T22:35:29.313Z,25.60
2023-04-07T22:37:56.379Z,27.75
2023-04-07T22:40:23.499Z,26.13
2023-04-07T22:42:50.691Z,26.50
2023-04-07T22:45:20.909Z,27.00
2023-04-07T22:47:48.116Z,25.92
2023-04-07T22:50:15.717Z,26.15
2023-04-07T22:52:42.793Z,26.52
2023-04-07T22:55:10.403Z,25.60
2023-04-07T22:57:37.548Z,25.50
2023-04-07T23:00:05.763Z,27.95
2023-04-07T23:02:33.014Z,28.55
2023-04-07T23:05:00.244Z,27.33
2023-04-07T23:07:27.358Z,29.17
2023-04-07T23:09:54.466Z,27.98
2023-04-07T23:12:21.727Z,30.30
2023-04-07T23:14:48.858Z,32.65
2023-04-07T23:17:16.277Z,34.30
2023-04-07T23:19:43.438Z,35.13
2023-04-07T23:22:10.517Z,35.10
2023-04-07T23:24:37.654Z,35.75
2023-04-07T23:27:04.875Z,29.13
2023-04-07T23:29:32.598Z,27.15
2023-04-07T23:31:59.773Z,25.25
2023-04-07T23:34:26.902Z,24.42
2023-04-07T23:36:54.034Z,22.05
2023-04-07T23:39:21.166Z,18.88
2023-04-07T23:41:48.404Z,17.83
2023-04-07T23:44:15.713Z,18.10
2023-04-07T23:46:42.800Z,15.85
2023-04-07T23:49:10.060Z,15.27
2023-04-07T23:51:37.248Z,11.93
2023-04-07T23:54:04.337Z,12.98
2023-04-07T23:56:33.202Z,11.55
2023-04-07T23:59:00.408Z,10.90
